sensor_id;sensor_type;location;lat;lon;timestamp;P1;durP1;ratioP1;P2;durP2;ratioP2
69917;SDS011;57203;42.672;23.334;2023-05-07T00:00:11;15.6;;;11.2;;
69917;SDS011;57203;42.672;23.334;2023-05-07T00:01:11;16.0;;;10.5;;
69917;SDS011;57203;42.672;23.334;2023-05-07T00:02:11;16.0;;;10.1;;
69917;SDS011;57203;42.672;23.334;2023-05-07T00:03:12;14.5;;;10.2;;
69917;SDS011;57203;42.672;23.334;2023-05-07T00:04:12;14.5;;;10.4;;
69917;SDS011;57203;42.672;23.334;2023-05-07T00:05:12;16.7;;;10.9;;
69917;SDS011;57203;42.672;23.334;2023-05-07T00:06:12;15.6;;;9.6;;
69917;SDS011;57203;42.672;23.334;2023-05-07T00:07:12;14.0;;;10.0;;
69917;SDS011;57203;42.672;23.334;2023-05-07T00:10:13;15.2;;;9.2;;
69917;SDS011;57203;42.672;23.334;2023-05-07T00:11:13;15.2;;;9.9;;
69917;SDS011;57203;42.672;23.334;2023-05-07T00:12:13;15.2;;;10.1;;
69917;SDS011;57203;42.672;23.334;2023-05-07T00:13:14;17.0;;;10.5;;
69917;SDS011;57203;42.672;23.334;2023-05-07T00:14:14;16.9;;;9.9;;
69917;SDS011;57203;42.672;23.334;2023-05-07T00:15:14;15.7;;;10.4;;
69917;SDS011;57203;42.672;23.334;2023-05-07T00:16:14;14.9;;;10.6;;
69917;SDS011;57203;42.672;23.334;2023-05-07T00:17:14;14.5;;;9.8;;
69917;SDS011;57203;42.672;23.334;2023-05-07T00:18:14;14.1;;;10.0;;
69917;SDS011;57203;42.672;23.334;2023-05-07T00:19:15;14.1;;;10.2;;
69917;SDS011;57203;42.672;23.334;2023-05-07T00:22:15;15.3;;;9.5;;
69917;SDS011;57203;42.672;23.334;2023-05-07T00:24:15;15.5;;;9.9;;
69917;SDS011;57203;42.672;23.334;2023-05-07T00:25:16;15.7;;;9.6;;
69917;SDS011;57203;42.672;23.334;2023-05-07T00:26:16;13.4;;;9.9;;
69917;SDS011;57203;42.672;23.334;2023-05-07T00:28:16;15.6;;;9.5;;
69917;SDS011;57203;42.672;23.334;2023-05-07T00:29:16;15.3;;;9.3;;
69917;SDS011;57203;42.672;23.334;2023-05-07T00:30:17;14.7;;;9.6;;
69917;SDS011;57203;42.672;23.334;2023-05-07T00:31:17;14.2;;;9.5;;
69917;SDS011;57203;42.672;23.334;2023-05-07T00:32:17;15.0;;;9.7;;
69917;SDS011;57203;42.672;23.334;2023-05-07T00:33:17;15.0;;;10.1;;
69917;SDS011;57203;42.672;23.334;2023-05-07T00:34:18;14.0;;;10.4;;
69917;SDS011;57203;42.672;23.334;2023-05-07T00:35:18;15.1;;;9.8;;
69917;SDS011;57203;42.672;23.334;2023-05-07T00:36:18;17.1;;;10.8;;
69917;SDS011;57203;42.672;23.334;2023-05-07T00:37:18;17.1;;;9.0;;
69917;SDS011;57203;42.672;23.334;2023-05-07T00:38:18;14.3;;;10.3;;
69917;SDS011;57203;42.672;23.334;2023-05-07T00:39:18;15.7;;;10.6;;
69917;SDS011;57203;42.672;23.334;2023-05-07T00:40:19;15.7;;;10.1;;
69917;SDS011;57203;42.672;23.334;2023-05-07T00:41:19;16.2;;;11.2;;
69917;SDS011;57203;42.672;23.334;2023-05-07T00:42:19;14.3;;;9.9;;
69917;SDS011;57203;42.672;23.334;2023-05-07T00:43:19;14.3;;;10.1;;
69917;SDS011;57203;42.672;23.334;2023-05-07T00:45:20;14.7;;;10.4;;
69917;SDS011;57203;42.672;23.334;2023-05-07T00:46:20;16.8;;;9.6;;
69917;SDS011;57203;42.672;23.334;2023-05-07T00:48:20;14.2;;;10.0;;
69917;SDS011;57203;42.672;23.334;2023-05-07T00:49:20;14.2;;;9.4;;
69917;SDS011;57203;42.672;23.334;2023-05-07T00:50:20;14.1;;;10.6;;
69917;SDS011;57203;42.672;23.334;2023-05-07T00:51:21;17.4;;;10.7;;
69917;SDS011;57203;42.672;23.334;2023-05-07T00:52:21;15.6;;;9.9;;
69917;SDS011;57203;42.672;23.334;2023-05-07T00:53:21;14.7;;;10.0;;
69917;SDS011;57203;42.672;23.334;2023-05-07T00:54:21;13.8;;;10.1;;
69917;SDS011;57203;42.672;23.334;2023-05-07T00:55:22;13.8;;;10.0;;
69917;SDS011;57203;42.672;23.334;2023-05-07T00:57:22;14.2;;;9.8;;
69917;SDS011;57203;42.672;23.334;2023-05-07T00:58:22;15.2;;;10.0;;
69917;SDS011;57203;42.672;23.334;2023-05-07T00:59:22;15.2;;;9.8;;
69917;SDS011;57203;42.672;23.334;2023-05-07T01:00:22;13.9;;;10.0;;
69917;SDS011;57203;42.672;23.334;2023-05-07T01:01:23;15.2;;;10.3;;
69917;SDS011;57203;42.672;23.334;2023-05-07T01:02:23;14.1;;;9.9;;
69917;SDS011;57203;42.672;23.334;2023-05-07T01:03:23;14.1;;;9.8;;
69917;SDS011;57203;42.672;23.334;2023-05-07T01:04:23;14.5;;;9.7;;
69917;SDS011;57203;42.672;23.334;2023-05-07T01:05:24;14.2;;;9.4;;
69917;SDS011;57203;42.672;23.334;2023-05-07T01:06:24;17.3;;;10.2;;
69917;SDS011;57203;42.672;23.334;2023-05-07T01:07:24;17.3;;;9.5;;
69917;SDS011;57203;42.672;23.334;2023-05-07T01:08:24;16.0;;;9.8;;
69917;SDS011;57203;42.672;23.334;2023-05-07T01:09:24;16.0;;;8.9;;
69917;SDS011;57203;42.672;23.334;2023-05-07T01:10:24;13.8;;;9.2;;
69917;SDS011;57203;42.672;23.334;2023-05-07T01:11:24;12.3;;;8.9;;
69917;SDS011;57203;42.672;23.334;2023-05-07T01:12:25;14.5;;;9.3;;
69917;SDS011;57203;42.672;23.334;2023-05-07T01:13:25;14.5;;;9.0;;
69917;SDS011;57203;42.672;23.334;2023-05-07T01:15:25;15.9;;;9.5;;
69917;SDS011;57203;42.672;23.334;2023-05-07T01:16:25;11.7;;;8.3;;
69917;SDS011;57203;42.672;23.334;2023-05-07T01:17:26;11.7;;;8.6;;
69917;SDS011;57203;42.672;23.334;2023-05-07T01:18:26;12.6;;;8.9;;
69917;SDS011;57203;42.672;23.334;2023-05-07T01:19:26;12.0;;;8.6;;
69917;SDS011;57203;42.672;23.334;2023-05-07T01:20:26;12.1;;;8.7;;
69917;SDS011;57203;42.672;23.334;2023-05-07T01:21:26;12.4;;;8.4;;
69917;SDS011;57203;42.672;23.334;2023-05-07T01:23:27;14.2;;;8.2;;
69917;SDS011;57203;42.672;23.334;2023-05-07T01:24:27;11.6;;;8.7;;
69917;SDS011;57203;42.672;23.334;2023-05-07T01:25:27;14.0;;;7.8;;
69917;SDS011;57203;42.672;23.334;2023-05-07T01:26:27;11.6;;;7.6;;
69917;SDS011;57203;42.672;23.334;2023-05-07T01:27:27;12.6;;;7.3;;
69917;SDS011;57203;42.672;23.334;2023-05-07T01:28:28;10.5;;;7.2;;
69917;SDS011;57203;42.672;23.334;2023-05-07T01:29:28;10.5;;;7.5;;
69917;SDS011;57203;42.672;23.334;2023-05-07T01:30:28;9.6;;;6.9;;
69917;SDS011;57203;42.672;23.334;2023-05-07T01:32:29;8.6;;;6.3;;
69917;SDS011;57203;42.672;23.334;2023-05-07T01:33:29;8.6;;;6.5;;
69917;SDS011;57203;42.672;23.334;2023-05-07T01:34:30;8.3;;;6.4;;
69917;SDS011;57203;42.672;23.334;2023-05-07T01:35:32;9.6;;;6.3;;
69917;SDS011;57203;42.672;23.334;2023-05-07T01:36:29;8.8;;;6.0;;
69917;SDS011;57203;42.672;23.334;2023-05-07T01:37:29;9.9;;;6.2;;
69917;SDS011;57203;42.672;23.334;2023-05-07T01:38:30;9.9;;;5.4;;
69917;SDS011;57203;42.672;23.334;2023-05-07T01:39:30;7.3;;;5.7;;
69917;SDS011;57203;42.672;23.334;2023-05-07T01:40:30;7.9;;;5.1;;
69917;SDS011;57203;42.672;23.334;2023-05-07T01:41:30;7.1;;;4.3;;
69917;SDS011;57203;42.672;23.334;2023-05-07T01:42:30;7.8;;;5.6;;
69917;SDS011;57203;42.672;23.334;2023-05-07T01:43:30;7.0;;;5.2;;
69917;SDS011;57203;42.672;23.334;2023-05-07T01:44:31;7.0;;;5.0;;
69917;SDS011;57203;42.672;23.334;2023-05-07T01:46:31;6.4;;;4.9;;
69917;SDS011;57203;42.672;23.334;2023-05-07T01:48:32;6.5;;;5.2;;
69917;SDS011;57203;42.672;23.334;2023-05-07T01:49:32;7.2;;;4.8;;
69917;SDS011;57203;42.672;23.334;2023-05-07T01:50:32;6.4;;;4.9;;
69917;SDS011;57203;42.672;23.334;2023-05-07T01:51:32;6.9;;;4.3;;
69917;SDS011;57203;42.672;23.334;2023-05-07T01:52:32;5.6;;;4.4;;
69917;SDS011;57203;42.672;23.334;2023-05-07T01:53:35;6.4;;;5.0;;
69917;SDS011;57203;42.672;23.334;2023-05-07T01:55:33;7.1;;;4.4;;
69917;SDS011;57203;42.672;23.334;2023-05-07T01:56:33;5.6;;;4.2;;
69917;SDS011;57203;42.672;23.334;2023-05-07T01:57:33;5.6;;;4.3;;
69917;SDS011;57203;42.672;23.334;2023-05-07T01:58:33;5.0;;;4.6;;
69917;SDS011;57203;42.672;23.334;2023-05-07T01:59:33;6.9;;;4.3;;
69917;SDS011;57203;42.672;23.334;2023-05-07T02:00:34;5.6;;;4.6;;
69917;SDS011;57203;42.672;23.334;2023-05-07T02:01:34;5.7;;;5.0;;
69917;SDS011;57203;42.672;23.334;2023-05-07T02:02:34;5.8;;;4.9;;
69917;SDS011;57203;42.672;23.334;2023-05-07T02:03:34;6.5;;;4.7;;
69917;SDS011;57203;42.672;23.334;2023-05-07T02:04:34;6.3;;;4.9;;
69917;SDS011;57203;42.672;23.334;2023-05-07T02:05:35;6.6;;;4.8;;
69917;SDS011;57203;42.672;23.334;2023-05-07T02:06:35;6.0;;;5.0;;
69917;SDS011;57203;42.672;23.334;2023-05-07T02:07:35;6.0;;;4.3;;
69917;SDS011;57203;42.672;23.334;2023-05-07T02:08:35;8.1;;;5.0;;
69917;SDS011;57203;42.672;23.334;2023-05-07T02:09:35;8.1;;;5.3;;
69917;SDS011;57203;42.672;23.334;2023-05-07T02:10:36;8.6;;;5.4;;
69917;SDS011;57203;42.672;23.334;2023-05-07T02:11:36;7.6;;;4.9;;
69917;SDS011;57203;42.672;23.334;2023-05-07T02:12:36;8.4;;;4.8;;
69917;SDS011;57203;42.672;23.334;2023-05-07T02:13:36;6.1;;;5.1;;
69917;SDS011;57203;42.672;23.334;2023-05-07T02:14:36;6.9;;;5.3;;
69917;SDS011;57203;42.672;23.334;2023-05-07T02:15:37;6.7;;;5.1;;
69917;SDS011;57203;42.672;23.334;2023-05-07T02:16:37;6.7;;;5.6;;
69917;SDS011;57203;42.672;23.334;2023-05-07T02:17:39;8.4;;;5.5;;
69917;SDS011;57203;42.672;23.334;2023-05-07T02:18:37;8.2;;;5.4;;
69917;SDS011;57203;42.672;23.334;2023-05-07T02:19:37;6.6;;;5.5;;
69917;SDS011;57203;42.672;23.334;2023-05-07T02:20:38;6.9;;;5.7;;
69917;SDS011;57203;42.672;23.334;2023-05-07T02:21:38;7.0;;;5.4;;
69917;SDS011;57203;42.672;23.334;2023-05-07T02:22:38;6.1;;;6.0;;
69917;SDS011;57203;42.672;23.334;2023-05-07T02:23:38;7.8;;;6.3;;
69917;SDS011;57203;42.672;23.334;2023-05-07T02:24:38;9.7;;;5.6;;
69917;SDS011;57203;42.672;23.334;2023-05-07T02:25:38;6.7;;;5.7;;
69917;SDS011;57203;42.672;23.334;2023-05-07T02:26:39;7.7;;;5.6;;
69917;SDS011;57203;42.672;23.334;2023-05-07T02:27:39;8.5;;;5.9;;
69917;SDS011;57203;42.672;23.334;2023-05-07T02:28:39;7.8;;;5.8;;
69917;SDS011;57203;42.672;23.334;2023-05-07T02:29:39;7.8;;;6.0;;
69917;SDS011;57203;42.672;23.334;2023-05-07T02:30:39;8.6;;;5.6;;
69917;SDS011;57203;42.672;23.334;2023-05-07T02:31:40;10.3;;;5.8;;
69917;SDS011;57203;42.672;23.334;2023-05-07T02:32:40;10.3;;;6.0;;
69917;SDS011;57203;42.672;23.334;2023-05-07T02:33:40;9.0;;;6.3;;
69917;SDS011;57203;42.672;23.334;2023-05-07T02:34:40;8.2;;;6.1;;
69917;SDS011;57203;42.672;23.334;2023-05-07T02:35:40;7.4;;;5.9;;
69917;SDS011;57203;42.672;23.334;2023-05-07T02:36:40;10.1;;;6.4;;
69917;SDS011;57203;42.672;23.334;2023-05-07T02:37:41;9.0;;;6.2;;
69917;SDS011;57203;42.672;23.334;2023-05-07T02:38:41;7.7;;;5.7;;
69917;SDS011;57203;42.672;23.334;2023-05-07T02:39:41;7.7;;;6.2;;
69917;SDS011;57203;42.672;23.334;2023-05-07T02:40:41;7.9;;;6.1;;
69917;SDS011;57203;42.672;23.334;2023-05-07T02:41:42;8.9;;;6.2;;
69917;SDS011;57203;42.672;23.334;2023-05-07T02:42:42;9.4;;;6.0;;
69917;SDS011;57203;42.672;23.334;2023-05-07T02:44:42;7.2;;;6.1;;
69917;SDS011;57203;42.672;23.334;2023-05-07T02:45:42;7.4;;;5.7;;
69917;SDS011;57203;42.672;23.334;2023-05-07T02:46:42;6.8;;;6.3;;
69917;SDS011;57203;42.672;23.334;2023-05-07T02:47:43;8.5;;;6.2;;
69917;SDS011;57203;42.672;23.334;2023-05-07T02:48:43;8.5;;;6.0;;
69917;SDS011;57203;42.672;23.334;2023-05-07T02:49:43;9.5;;;6.1;;
69917;SDS011;57203;42.672;23.334;2023-05-07T02:50:43;8.8;;;6.2;;
69917;SDS011;57203;42.672;23.334;2023-05-07T02:52:44;7.6;;;5.8;;
69917;SDS011;57203;42.672;23.334;2023-05-07T02:53:44;7.6;;;6.1;;
69917;SDS011;57203;42.672;23.334;2023-05-07T02:54:44;7.3;;;6.7;;
69917;SDS011;57203;42.672;23.334;2023-05-07T02:55:44;9.2;;;6.3;;
69917;SDS011;57203;42.672;23.334;2023-05-07T02:56:44;8.4;;;6.0;;
69917;SDS011;57203;42.672;23.334;2023-05-07T02:57:45;8.4;;;6.7;;
69917;SDS011;57203;42.672;23.334;2023-05-07T02:58:45;9.8;;;6.6;;
69917;SDS011;57203;42.672;23.334;2023-05-07T02:59:45;10.2;;;6.3;;
69917;SDS011;57203;42.672;23.334;2023-05-07T03:00:45;9.6;;;6.5;;
69917;SDS011;57203;42.672;23.334;2023-05-07T03:01:45;8.2;;;6.6;;
69917;SDS011;57203;42.672;23.334;2023-05-07T03:03:46;9.6;;;6.1;;
69917;SDS011;57203;42.672;23.334;2023-05-07T03:05:46;7.8;;;6.6;;
69917;SDS011;57203;42.672;23.334;2023-05-07T03:06:46;8.9;;;6.4;;
69917;SDS011;57203;42.672;23.334;2023-05-07T03:08:47;7.9;;;6.3;;
69917;SDS011;57203;42.672;23.334;2023-05-07T03:09:47;7.8;;;6.6;;
69917;SDS011;57203;42.672;23.334;2023-05-07T03:10:47;8.4;;;6.7;;
69917;SDS011;57203;42.672;23.334;2023-05-07T03:11:47;8.6;;;6.5;;
69917;SDS011;57203;42.672;23.334;2023-05-07T03:12:47;9.0;;;6.7;;
69917;SDS011;57203;42.672;23.334;2023-05-07T03:13:48;8.1;;;6.5;;
69917;SDS011;57203;42.672;23.334;2023-05-07T03:14:48;8.9;;;6.8;;
69917;SDS011;57203;42.672;23.334;2023-05-07T03:15:48;8.5;;;6.9;;
69917;SDS011;57203;42.672;23.334;2023-05-07T03:16:48;12.7;;;7.3;;
69917;SDS011;57203;42.672;23.334;2023-05-07T03:17:48;8.2;;;6.7;;
69917;SDS011;57203;42.672;23.334;2023-05-07T03:18:49;9.2;;;7.1;;
69917;SDS011;57203;42.672;23.334;2023-05-07T03:19:49;9.2;;;7.2;;
69917;SDS011;57203;42.672;23.334;2023-05-07T03:22:49;11.4;;;7.0;;
69917;SDS011;57203;42.672;23.334;2023-05-07T03:23:49;9.4;;;7.4;;
69917;SDS011;57203;42.672;23.334;2023-05-07T03:24:50;9.4;;;7.0;;
69917;SDS011;57203;42.672;23.334;2023-05-07T03:25:50;9.9;;;7.3;;
69917;SDS011;57203;42.672;23.334;2023-05-07T03:26:50;10.8;;;7.6;;
69917;SDS011;57203;42.672;23.334;2023-05-07T03:28:50;11.0;;;7.2;;
69917;SDS011;57203;42.672;23.334;2023-05-07T03:29:51;9.5;;;7.5;;
69917;SDS011;57203;42.672;23.334;2023-05-07T03:30:51;9.7;;;8.1;;
69917;SDS011;57203;42.672;23.334;2023-05-07T03:31:51;10.6;;;7.7;;
69917;SDS011;57203;42.672;23.334;2023-05-07T03:32:51;10.3;;;7.8;;
69917;SDS011;57203;42.672;23.334;2023-05-07T03:33:52;10.7;;;7.9;;
69917;SDS011;57203;42.672;23.334;2023-05-07T03:34:52;10.7;;;7.7;;
69917;SDS011;57203;42.672;23.334;2023-05-07T03:35:52;10.5;;;7.9;;
69917;SDS011;57203;42.672;23.334;2023-05-07T03:36:52;12.1;;;7.7;;
69917;SDS011;57203;42.672;23.334;2023-05-07T03:37:52;9.3;;;8.3;;
69917;SDS011;57203;42.672;23.334;2023-05-07T03:38:52;11.3;;;7.8;;
69917;SDS011;57203;42.672;23.334;2023-05-07T03:39:52;11.3;;;8.0;;
69917;SDS011;57203;42.672;23.334;2023-05-07T03:40:53;10.7;;;7.9;;
69917;SDS011;57203;42.672;23.334;2023-05-07T03:41:53;12.1;;;8.2;;
69917;SDS011;57203;42.672;23.334;2023-05-07T03:42:53;10.1;;;7.7;;
69917;SDS011;57203;42.672;23.334;2023-05-07T03:44:53;11.4;;;8.2;;
69917;SDS011;57203;42.672;23.334;2023-05-07T03:45:54;12.1;;;8.5;;
69917;SDS011;57203;42.672;23.334;2023-05-07T03:46:54;11.7;;;9.1;;
69917;SDS011;57203;42.672;23.334;2023-05-07T03:47:54;14.1;;;7.9;;
69917;SDS011;57203;42.672;23.334;2023-05-07T03:48:54;12.7;;;8.8;;
69917;SDS011;57203;42.672;23.334;2023-05-07T03:49:54;12.0;;;9.0;;
69917;SDS011;57203;42.672;23.334;2023-05-07T03:50:55;12.1;;;7.8;;
69917;SDS011;57203;42.672;23.334;2023-05-07T03:51:55;10.9;;;8.6;;
69917;SDS011;57203;42.672;23.334;2023-05-07T03:53:55;13.8;;;8.5;;
69917;SDS011;57203;42.672;23.334;2023-05-07T03:54:55;11.7;;;8.1;;
69917;SDS011;57203;42.672;23.334;2023-05-07T03:55:55;12.4;;;8.7;;
69917;SDS011;57203;42.672;23.334;2023-05-07T03:56:56;14.5;;;8.2;;
69917;SDS011;57203;42.672;23.334;2023-05-07T03:57:56;12.4;;;9.4;;
69917;SDS011;57203;42.672;23.334;2023-05-07T03:58:56;14.0;;;9.0;;
69917;SDS011;57203;42.672;23.334;2023-05-07T04:01:57;12.1;;;8.4;;
69917;SDS011;57203;42.672;23.334;2023-05-07T04:02:57;12.9;;;9.0;;
69917;SDS011;57203;42.672;23.334;2023-05-07T04:03:57;12.9;;;8.8;;
69917;SDS011;57203;42.672;23.334;2023-05-07T04:04:57;12.3;;;9.5;;
69917;SDS011;57203;42.672;23.334;2023-05-07T04:05:57;16.5;;;8.7;;
69917;SDS011;57203;42.672;23.334;2023-05-07T04:06:58;12.3;;;8.6;;
69917;SDS011;57203;42.672;23.334;2023-05-07T04:07:58;11.5;;;9.2;;
69917;SDS011;57203;42.672;23.334;2023-05-07T04:08:58;13.4;;;9.0;;
69917;SDS011;57203;42.672;23.334;2023-05-07T04:09:58;14.5;;;8.9;;
69917;SDS011;57203;42.672;23.334;2023-05-07T04:10:58;12.1;;;8.4;;
69917;SDS011;57203;42.672;23.334;2023-05-07T04:11:59;10.9;;;8.1;;
69917;SDS011;57203;42.672;23.334;2023-05-07T04:12:59;13.4;;;8.4;;
69917;SDS011;57203;42.672;23.334;2023-05-07T04:13:59;11.2;;;8.6;;
69917;SDS011;57203;42.672;23.334;2023-05-07T04:14:59;12.9;;;8.3;;
69917;SDS011;57203;42.672;23.334;2023-05-07T04:16:00;12.8;;;8.9;;
69917;SDS011;57203;42.672;23.334;2023-05-07T04:16:59;12.4;;;9.0;;
69917;SDS011;57203;42.672;23.334;2023-05-07T04:18:00;13.8;;;8.9;;
69917;SDS011;57203;42.672;23.334;2023-05-07T04:19:00;13.8;;;9.0;;
69917;SDS011;57203;42.672;23.334;2023-05-07T04:20:00;13.8;;;8.5;;
69917;SDS011;57203;42.672;23.334;2023-05-07T04:21:00;12.1;;;8.6;;
69917;SDS011;57203;42.672;23.334;2023-05-07T04:22:00;12.1;;;8.8;;
69917;SDS011;57203;42.672;23.334;2023-05-07T04:23:01;11.9;;;8.5;;
69917;SDS011;57203;42.672;23.334;2023-05-07T04:25:01;12.7;;;8.3;;
69917;SDS011;57203;42.672;23.334;2023-05-07T04:26:01;12.1;;;8.9;;
69917;SDS011;57203;42.672;23.334;2023-05-07T04:27:01;12.7;;;8.7;;
69917;SDS011;57203;42.672;23.334;2023-05-07T04:28:02;13.3;;;8.5;;
69917;SDS011;57203;42.672;23.334;2023-05-07T04:29:02;14.6;;;9.1;;
69917;SDS011;57203;42.672;23.334;2023-05-07T04:30:02;12.3;;;8.2;;
69917;SDS011;57203;42.672;23.334;2023-05-07T04:31:02;10.3;;;8.4;;
69917;SDS011;57203;42.672;23.334;2023-05-07T04:32:03;12.0;;;8.5;;
69917;SDS011;57203;42.672;23.334;2023-05-07T04:33:03;12.8;;;8.2;;
69917;SDS011;57203;42.672;23.334;2023-05-07T04:34:03;11.4;;;8.8;;
69917;SDS011;57203;42.672;23.334;2023-05-07T04:35:04;13.1;;;8.6;;
69917;SDS011;57203;42.672;23.334;2023-05-07T04:36:03;12.5;;;8.5;;
69917;SDS011;57203;42.672;23.334;2023-05-07T04:37:03;12.1;;;8.1;;
69917;SDS011;57203;42.672;23.334;2023-05-07T04:38:04;11.3;;;7.6;;
69917;SDS011;57203;42.672;23.334;2023-05-07T04:39:04;10.0;;;8.5;;
69917;SDS011;57203;42.672;23.334;2023-05-07T04:40:05;13.1;;;9.4;;
69917;SDS011;57203;42.672;23.334;2023-05-07T04:41:05;15.2;;;8.2;;
69917;SDS011;57203;42.672;23.334;2023-05-07T04:42:04;11.8;;;9.3;;
69917;SDS011;57203;42.672;23.334;2023-05-07T04:43:05;13.2;;;8.4;;
69917;SDS011;57203;42.672;23.334;2023-05-07T04:44:05;13.4;;;8.8;;
69917;SDS011;57203;42.672;23.334;2023-05-07T04:45:05;13.4;;;8.5;;
69917;SDS011;57203;42.672;23.334;2023-05-07T04:46:06;12.5;;;9.4;;
69917;SDS011;57203;42.672;23.334;2023-05-07T04:47:05;11.6;;;8.7;;
69917;SDS011;57203;42.672;23.334;2023-05-07T04:48:05;11.6;;;8.8;;
69917;SDS011;57203;42.672;23.334;2023-05-07T04:49:06;12.8;;;9.2;;
69917;SDS011;57203;42.672;23.334;2023-05-07T04:51:06;13.0;;;9.1;;
69917;SDS011;57203;42.672;23.334;2023-05-07T04:52:06;12.9;;;9.5;;
69917;SDS011;57203;42.672;23.334;2023-05-07T04:53:07;13.5;;;9.0;;
69917;SDS011;57203;42.672;23.334;2023-05-07T04:54:07;13.6;;;9.4;;
69917;SDS011;57203;42.672;23.334;2023-05-07T04:55:07;12.8;;;8.6;;
69917;SDS011;57203;42.672;23.334;2023-05-07T04:56:07;13.6;;;8.8;;
69917;SDS011;57203;42.672;23.334;2023-05-07T04:57:08;11.4;;;9.0;;
69917;SDS011;57203;42.672;23.334;2023-05-07T04:58:08;13.7;;;8.7;;
69917;SDS011;57203;42.672;23.334;2023-05-07T05:00:08;11.5;;;9.3;;
69917;SDS011;57203;42.672;23.334;2023-05-07T05:01:08;12.7;;;8.7;;
69917;SDS011;57203;42.672;23.334;2023-05-07T05:02:09;13.9;;;8.6;;
69917;SDS011;57203;42.672;23.334;2023-05-07T05:03:08;12.1;;;8.3;;
69917;SDS011;57203;42.672;23.334;2023-05-07T05:04:08;11.5;;;8.7;;
69917;SDS011;57203;42.672;23.334;2023-05-07T05:05:09;11.5;;;8.1;;
69917;SDS011;57203;42.672;23.334;2023-05-07T05:06:09;11.2;;;7.6;;
69917;SDS011;57203;42.672;23.334;2023-05-07T05:07:09;10.5;;;7.7;;
69917;SDS011;57203;42.672;23.334;2023-05-07T05:08:09;11.9;;;7.9;;
69917;SDS011;57203;42.672;23.334;2023-05-07T05:09:10;15.3;;;7.7;;
69917;SDS011;57203;42.672;23.334;2023-05-07T05:10:10;15.3;;;8.1;;
69917;SDS011;57203;42.672;23.334;2023-05-07T05:11:10;11.6;;;7.8;;
69917;SDS011;57203;42.672;23.334;2023-05-07T05:12:10;10.1;;;8.6;;
69917;SDS011;57203;42.672;23.334;2023-05-07T05:13:10;12.6;;;7.4;;
69917;SDS011;57203;42.672;23.334;2023-05-07T05:14:11;10.6;;;7.9;;
69917;SDS011;57203;42.672;23.334;2023-05-07T05:15:11;11.8;;;8.3;;
69917;SDS011;57203;42.672;23.334;2023-05-07T05:16:11;12.3;;;8.0;;
69917;SDS011;57203;42.672;23.334;2023-05-07T05:17:11;10.6;;;7.6;;
69917;SDS011;57203;42.672;23.334;2023-05-07T05:18:11;10.6;;;7.7;;
69917;SDS011;57203;42.672;23.334;2023-05-07T05:19:12;10.9;;;8.2;;
69917;SDS011;57203;42.672;23.334;2023-05-07T05:20:12;10.9;;;7.4;;
69917;SDS011;57203;42.672;23.334;2023-05-07T05:21:12;10.5;;;7.5;;
69917;SDS011;57203;42.672;23.334;2023-05-07T05:22:12;10.1;;;6.6;;
69917;SDS011;57203;42.672;23.334;2023-05-07T05:23:12;8.8;;;6.9;;
69917;SDS011;57203;42.672;23.334;2023-05-07T05:24:13;8.8;;;7.3;;
69917;SDS011;57203;42.672;23.334;2023-05-07T05:25:13;10.1;;;7.4;;
69917;SDS011;57203;42.672;23.334;2023-05-07T05:26:13;10.9;;;7.7;;
69917;SDS011;57203;42.672;23.334;2023-05-07T05:27:13;11.2;;;8.2;;
69917;SDS011;57203;42.672;23.334;2023-05-07T05:28:13;11.0;;;7.3;;
69917;SDS011;57203;42.672;23.334;2023-05-07T05:29:14;11.0;;;7.4;;
69917;SDS011;57203;42.672;23.334;2023-05-07T05:30:14;10.6;;;7.8;;
69917;SDS011;57203;42.672;23.334;2023-05-07T05:31:14;12.3;;;7.4;;
69917;SDS011;57203;42.672;23.334;2023-05-07T05:33:14;11.9;;;7.3;;
69917;SDS011;57203;42.672;23.334;2023-05-07T05:34:15;11.1;;;7.2;;
69917;SDS011;57203;42.672;23.334;2023-05-07T05:35:15;11.3;;;7.5;;
69917;SDS011;57203;42.672;23.334;2023-05-07T05:36:15;10.2;;;6.8;;
69917;SDS011;57203;42.672;23.334;2023-05-07T05:37:15;12.2;;;7.8;;
69917;SDS011;57203;42.672;23.334;2023-05-07T05:39:16;11.0;;;6.9;;
69917;SDS011;57203;42.672;23.334;2023-05-07T05:40:16;12.3;;;7.3;;
69917;SDS011;57203;42.672;23.334;2023-05-07T05:41:16;12.3;;;7.4;;
69917;SDS011;57203;42.672;23.334;2023-05-07T05:42:16;12.6;;;7.2;;
69917;SDS011;57203;42.672;23.334;2023-05-07T05:43:16;12.6;;;6.8;;
69917;SDS011;57203;42.672;23.334;2023-05-07T05:44:17;9.6;;;7.5;;
69917;SDS011;57203;42.672;23.334;2023-05-07T05:45:17;10.5;;;6.8;;
69917;SDS011;57203;42.672;23.334;2023-05-07T05:46:17;9.1;;;7.2;;
69917;SDS011;57203;42.672;23.334;2023-05-07T05:47:17;10.6;;;6.9;;
69917;SDS011;57203;42.672;23.334;2023-05-07T05:48:17;9.0;;;8.6;;
69917;SDS011;57203;42.672;23.334;2023-05-07T05:49:18;14.1;;;7.8;;
69917;SDS011;57203;42.672;23.334;2023-05-07T05:51:18;10.9;;;7.6;;
69917;SDS011;57203;42.672;23.334;2023-05-07T05:52:18;11.1;;;7.5;;
69917;SDS011;57203;42.672;23.334;2023-05-07T05:53:18;10.1;;;7.4;;
69917;SDS011;57203;42.672;23.334;2023-05-07T05:54:19;11.0;;;7.0;;
69917;SDS011;57203;42.672;23.334;2023-05-07T05:55:19;10.2;;;7.8;;
69917;SDS011;57203;42.672;23.334;2023-05-07T05:56:19;12.2;;;6.9;;
69917;SDS011;57203;42.672;23.334;2023-05-07T05:57:19;10.3;;;7.4;;
69917;SDS011;57203;42.672;23.334;2023-05-07T05:58:19;10.3;;;6.9;;
69917;SDS011;57203;42.672;23.334;2023-05-07T05:59:20;11.9;;;7.1;;
69917;SDS011;57203;42.672;23.334;2023-05-07T06:00:20;10.7;;;7.5;;
69917;SDS011;57203;42.672;23.334;2023-05-07T06:01:20;10.7;;;7.4;;
69917;SDS011;57203;42.672;23.334;2023-05-07T06:02:20;11.4;;;7.7;;
69917;SDS011;57203;42.672;23.334;2023-05-07T06:04:21;12.3;;;7.4;;
69917;SDS011;57203;42.672;23.334;2023-05-07T06:05:21;12.2;;;7.5;;
69917;SDS011;57203;42.672;23.334;2023-05-07T06:06:21;10.5;;;7.6;;
69917;SDS011;57203;42.672;23.334;2023-05-07T06:07:21;10.6;;;7.2;;
69917;SDS011;57203;42.672;23.334;2023-05-07T06:08:21;11.0;;;7.6;;
69917;SDS011;57203;42.672;23.334;2023-05-07T06:09:22;11.0;;;7.7;;
69917;SDS011;57203;42.672;23.334;2023-05-07T06:10:22;12.4;;;6.9;;
69917;SDS011;57203;42.672;23.334;2023-05-07T06:11:22;11.0;;;7.1;;
69917;SDS011;57203;42.672;23.334;2023-05-07T06:12:22;10.5;;;6.8;;
69917;SDS011;57203;42.672;23.334;2023-05-07T06:13:22;9.1;;;6.7;;
69917;SDS011;57203;42.672;23.334;2023-05-07T06:14:23;10.3;;;7.7;;
69917;SDS011;57203;42.672;23.334;2023-05-07T06:15:23;10.4;;;7.5;;
69917;SDS011;57203;42.672;23.334;2023-05-07T06:16:24;10.5;;;6.6;;
69917;SDS011;57203;42.672;23.334;2023-05-07T06:17:23;9.3;;;7.1;;
69917;SDS011;57203;42.672;23.334;2023-05-07T06:18:24;10.0;;;6.5;;
69917;SDS011;57203;42.672;23.334;2023-05-07T06:19:24;9.0;;;7.4;;
69917;SDS011;57203;42.672;23.334;2023-05-07T06:20:24;11.0;;;7.1;;
69917;SDS011;57203;42.672;23.334;2023-05-07T06:21:24;9.9;;;7.2;;
69917;SDS011;57203;42.672;23.334;2023-05-07T06:22:24;10.1;;;6.7;;
69917;SDS011;57203;42.672;23.334;2023-05-07T06:23:25;10.1;;;6.8;;
69917;SDS011;57203;42.672;23.334;2023-05-07T06:25:25;9.6;;;6.3;;
69917;SDS011;57203;42.672;23.334;2023-05-07T06:26:25;8.6;;;6.7;;
69917;SDS011;57203;42.672;23.334;2023-05-07T06:27:25;9.1;;;6.4;;
69917;SDS011;57203;42.672;23.334;2023-05-07T06:28:26;8.7;;;6.3;;
69917;SDS011;57203;42.672;23.334;2023-05-07T06:29:26;9.2;;;6.8;;
69917;SDS011;57203;42.672;23.334;2023-05-07T06:30:26;10.0;;;6.2;;
69917;SDS011;57203;42.672;23.334;2023-05-07T06:32:27;7.7;;;6.1;;
69917;SDS011;57203;42.672;23.334;2023-05-07T06:33:27;8.5;;;6.2;;
69917;SDS011;57203;42.672;23.334;2023-05-07T06:34:27;8.5;;;5.9;;
69917;SDS011;57203;42.672;23.334;2023-05-07T06:35:27;8.1;;;6.5;;
69917;SDS011;57203;42.672;23.334;2023-05-07T06:36:27;8.8;;;6.4;;
69917;SDS011;57203;42.672;23.334;2023-05-07T06:37:28;7.8;;;5.3;;
69917;SDS011;57203;42.672;23.334;2023-05-07T06:38:28;7.8;;;6.1;;
69917;SDS011;57203;42.672;23.334;2023-05-07T06:39:28;9.8;;;6.3;;